Ne Bahamas - 350 Nm Ene Of Nassau, Bahamas (41047) Wave Buoy

6:50pm - Fri 27th Nov 2015 All times are UTC.

  • Sig Wave height 16.7ft
  • Swell Direction
  • Peak Period 12s
  • Average Period 8s
  • Wind
    25mph, 31mph gusts
  • Sea Temp 76°f
  • Air Temp 75°f
  • Sea Pressure 1016.2mb

More Historic Weather Station data

Upgrade to MSW Pro to gain access to the past 30 days of data for over 8000 Wavebouys and Weather Stations around the globe.

Join Pro

Comparision Forecast

View Surf forecast
Fri 11/27 6:50pm 16.5ft 12s 8s 25 31 mph 1016.2mb 76f 75f
5:50pm 18.5ft 14s 9s 27 34 mph 1016.9mb 76f 74f
4:50pm 19.5ft 12s 9s 25 34 mph 1018mb 76f 74f
3:50pm 17.5ft 14s 9s 29 34 mph 1018.6mb 76f 74f
2:50pm 17ft 14s 8s 29 36 mph 1019.5mb 76f 75f
1:50pm 18ft 11s 9s 31 40 mph 1019.3mb 76f 74f
12:50pm 17ft 13s 9s 25 34 mph 1019mb 76f 75f
11:50am 15ft 12s 8s 27 36 mph 1018.9mb 76f 75f
10:50am 17ft 13s 8s 29 36 mph 1018.4mb 76f 75f
9:50am 16ft 12s 9s 29 34 mph 1018.4mb 76f 75f
8:50am 16.5ft 12s 8s 27 34 mph 1018.9mb 76f 75f
7:50am 16.5ft 13s 9s 25 31 mph 1019.8mb 76f 75f
6:50am 16.5ft 13s 8s 29 38 mph 1020mb 76f 75f
5:50am 16.5ft 12s 8s 29 34 mph 1020.4mb 76f 75f
4:50am 17.5ft 13s 9s 29 36 mph 1020.8mb 76f 75f
3:50am 15.5ft 13s 8s 27 31 mph 1021.4mb 76f 74f
2:50am 15.5ft 12s 8s 29 36 mph 1021.2mb 76f 75f
1:50am 15.5ft 12s 8s 27 34 mph 1021.6mb 76f 75f
12:50am 15ft 12s 8s 29 36 mph 1021.9mb 76f 75f
Thu 11/26 11:50pm 15.5ft 12s 8s 29 34 mph 1022.1mb 76f 75f
10:50pm 16.5ft 12s 8s 29 34 mph 1022mb 76f 75f
9:50pm 17ft 12s 8s 29 36 mph 1022.1mb 77f 76f
8:50pm 14.5ft 11s 8s 27 34 mph 1022.4mb 77f 75f
7:50pm 16.5ft 10s 8s 27 34 mph 1022.1mb 77f 76f
6:50pm 15.5ft 12s 8s 27 34 mph 1022.2mb 77f 75f
5:50pm 15.5ft 12s 8s 29 36 mph 1022.7mb 76f 76f
4:50pm 15.5ft 11s 8s 27 36 mph 1023.5mb 76f 75f
3:50pm 14.5ft 11s 8s 29 40 mph 1024.2mb 76f 73f
2:50pm 14ft 11s 7s 29 36 mph 1024.6mb 76f 75f
1:50pm 14.5ft 11s 8s 29 36 mph 1024.4mb 76f 74f
12:50pm 13ft 10s 8s 29 36 mph 1023.9mb 76f 74f
11:50am 15ft 11s 8s 25 31 mph 1023.8mb 76f 73f
10:50am 15.5ft 11s 8s 29 38 mph 1023.2mb 76f 73f
9:50am 15ft 11s 8s 29 34 mph 1023mb 76f 74f
8:50am 14.5ft 11s 8s 27 34 mph 1022.9mb 76f 74f
7:50am 15.5ft 11s 8s 27 34 mph 1023mb 76f 75f
6:50am 12ft 11s 7s 29 36 mph 1023.2mb 76f 75f
5:50am 15ft 10s 8s 29 36 mph 1023.4mb 76f 74f
4:50am 15ft 10s 8s 29 36 mph 1024mb 76f 74f
3:50am 15.5ft 10s 8s 29 34 mph 1024mb 77f 74f
2:50am 15ft 10s 7s 29 38 mph 1024.2mb 77f 74f
1:50am 16ft 10s 7s 29 36 mph 1024.3mb 77f 74f
12:50am 15ft 10s 8s 34 40 mph 1023.5mb 77f 74f
Wed 11/25 11:50pm 14ft 10s 7s 31 40 mph 1023.2mb 77f 74f
10:50pm 14ft 9s 7s 31 40 mph 1022.7mb 77f 73f
9:50pm 14ft 9s 7s 31 40 mph 1022.3mb 77f 73f
8:50pm 12ft 9s 7s 31 38 mph 1022.1mb 77f 73f
7:50pm 12ft 8s 7s 31 36 mph 1021.7mb 77f 74f
6:50pm 13ft 9s 7s 31 38 mph 1021.5mb 77f 74f
5:50pm 11ft 9s 6s 31 36 mph 1021.9mb 77f 74f
4:50pm 12.5ft 9s 7s 29 36 mph 1022.9mb 77f 74f
3:50pm 12ft 9s 7s 31 38 mph 1023.2mb 77f 73f
2:50pm 12ft 9s 7s 31 38 mph 1023.4mb 77f 74f
1:50pm 12.5ft 8s 7s 29 40 mph 1023.2mb 77f 72f
12:50pm 12ft 9s 7s 31 38 mph 1022.2mb 77f 74f
11:50am 11ft 8s 6s 31 38 mph 1021.4mb 77f 72f
10:50am 10ft 8s 6s 29 36 mph 1020.5mb 77f 73f
9:50am 9.5ft 8s 6s 29 34 mph 1020.1mb 77f 73f
8:50am 9.5ft 10s 7s 25 31 mph 1020mb 77f 71f
7:50am 8.5ft 11s 6s 22 31 mph 1020.1mb 77f 71f
6:50am 9ft 10s 6s 22 27 mph 1020mb 77f 73f
5:50am 9.5ft 10s 7s 20 25 mph 1020.7mb 77f 73f
4:50am 9ft 11s 6s 25 31 mph 1020.6mb 77f 73f
3:50am 10ft 10s 6s 27 31 mph 1020.8mb 77f 73f
2:50am 10ft 9s 6s 25 29 mph 1021.3mb 77f 72f
1:50am 10ft 10s 7s 27 31 mph 1020.8mb 77f 73f
12:50am 10ft 8s 6s 25 29 mph 1020.9mb 77f 73f
Tue 11/24 11:50pm 9ft 6s 6s 27 34 mph 1020mb 77f 73f
10:50pm 9.5ft 7s 6s 27 31 mph 1019.3mb 77f 72f
9:50pm 8.5ft 9s 6s 27 34 mph 1018.9mb 77f 72f
8:50pm 9ft 8s 6s 27 31 mph 1018.5mb 77f 72f
7:50pm 9ft 9s 6s 25 31 mph 1018.3mb 77f 72f
6:50pm 9ft 10s 6s 25 29 mph 1018.3mb 77f 72f
5:50pm 9ft 8s 6s 27 34 mph 1018mb 77f 73f
4:50pm 8ft 9s 6s 27 31 mph 1018.8mb 77f 72f
3:50pm 9ft 9s 6s 20 27 mph 1019.7mb 77f 73f
2:50pm 8ft 10s 6s 22 27 mph 1020mb 77f 73f
1:50pm 9ft 9s 6s 22 27 mph 1019.9mb 77f 71f
12:50pm 8.5ft 8s 6s 25 31 mph 1018.9mb 77f 71f
11:50am 9ft 8s 6s 22 27 mph 1018.4mb 77f 71f
10:50am 10ft 9s 7s 25 29 mph 1017.5mb 77f 72f
9:50am 10ft 9s 7s 25 31 mph 1017mb 77f 72f
8:50am 10ft 9s 7s 27 29 mph 1016.3mb 77f 72f
7:50am 9ft 9s 6s 25 29 mph 1016.4mb 77f 73f
6:50am 9ft 8s 6s 25 31 mph 1016.4mb 77f 73f
5:50am 8ft 8s 6s 25 31 mph 1016.4mb 77f 74f
4:50am 7.5ft 8s 6s 22 27 mph 1016.6mb 77f 74f
3:50am 8ft 7s 6s 22 27 mph 1016.7mb 77f 74f
2:50am 7.5ft 7s 6s 25 29 mph 1016.5mb 77f 75f
1:50am 7.5ft 12s 6s 25 27 mph 1016.3mb 77f 75f
12:50am 6.5ft 6s 6s 22 27 mph 1015.8mb 77f 75f
Mon 11/23 11:50pm 6.5ft 12s 6s 25 29 mph 1015.1mb 77f 75f
10:50pm 6ft 11s 6s 20 25 mph 1014.7mb 78f 76f
9:50pm 6.5ft 12s 6s 20 25 mph 1013.9mb 78f 76f
8:50pm 6.5ft 11s 6s 22 25 mph 1013.4mb 78f 77f
7:50pm 6ft 7s 6s 18 20 mph 1013.2mb 78f 78f